Terminal Aerodrome Forecast
Issued by NWS

Home | Current Version | Previous Version | Text Only | Print | Product List | Glossary On
Versions: 1 2 3 4 5 6 7 8 9 10 11 12 13 14
000
FTUS43 KGRB 050520
TAFCWA
TAF
KCWA 050520Z 0506/0606 16004KT 6SM FU SCT050
      TEMPO 0509/0513 3SM BR
     FM051400 20008KT 6SM HZ SCT040
     FM051800 19010G18KT P6SM SCT045
     FM052300 18007KT P6SM SKC
      AMD LTD TO CLD VIS AND WND TIL 11Z=

USA.gov is the U.S. government's official web portal to all federal, state and local government web resources and services.